Terminal Aerodrome Forecast
Issued by NWS

Home | Current Version | Previous Version | Text Only | Print | Product List | Glossary On
Versions: 1 2 3 4 5 6 7 8 9 10 11 12 13 14 15 16 17 18 19 20 21 22 23
000
FTUS43 KPAH 251728
TAFCGI
TAF
KCGI 251728Z 2518/2618 VRB03KT P6SM BKN200
     FM252100 VRB02KT P6SM VCSH BKN150
      TEMPO 2600/2604 4SM -SHRA BR OVC035
     FM260400 VRB01KT 6SM -SHRA BKN040 PROB30 2606/2612 4SM -SHRA
      OVC025=

USA.gov is the U.S. government's official web portal to all federal, state and local government web resources and services.